createdAt,value
2023-03-18T00:04:02.389Z,95244.00
2023-03-18T00:09:30.441Z,95251.00
2023-03-18T00:14:58.118Z,95252.00
2023-03-18T00:20:38.486Z,95257.00
2023-03-18T00:26:09.028Z,95257.00
2023-03-18T00:31:38.532Z,95262.00
2023-03-18T00:37:06.527Z,95266.00
2023-03-18T00:42:39.458Z,95273.00
2023-03-18T00:48:08.895Z,95269.00
2023-03-18T00:53:37.331Z,95276.00
2023-03-18T00:59:06.288Z,95272.00
2023-03-18T01:04:34.112Z,95285.00
2023-03-18T01:10:02.441Z,95282.00
2023-03-18T01:15:30.545Z,95278.00
2023-03-18T01:20:59.340Z,95271.00
2023-03-18T01:26:34.189Z,95268.00
2023-03-18T01:32:03.306Z,95265.00
2023-03-18T01:37:35.349Z,95266.00
2023-03-18T01:43:25.008Z,95261.00
2023-03-18T01:48:54.558Z,95270.00
2023-03-18T01:54:24.939Z,95272.00
2023-03-18T01:59:55.345Z,95281.00
2023-03-18T02:05:28.502Z,95279.00
2023-03-18T02:10:56.902Z,95281.00
2023-03-18T02:16:32.592Z,95289.00
2023-03-18T02:22:46.067Z,95289.00
2023-03-18T02:28:20.397Z,95292.00
2023-03-18T02:33:49.321Z,95295.00
2023-03-18T02:39:17.859Z,95295.00
2023-03-18T02:44:48.181Z,95297.00
2023-03-18T02:50:31.614Z,95301.00
2023-03-18T02:56:00.780Z,95308.00
2023-03-18T03:01:30.033Z,95306.00
2023-03-18T03:07:01.579Z,95326.00
2023-03-18T03:12:38.706Z,95321.00
2023-03-18T03:18:08.691Z,95325.00
2023-03-18T03:23:38.964Z,95340.00
2023-03-18T03:29:07.943Z,95339.00
2023-03-18T03:34:35.705Z,95346.00
2023-03-18T03:40:04.646Z,95345.00
2023-03-18T03:45:34.012Z,95351.00
2023-03-18T03:51:03.044Z,95352.00
2023-03-18T03:56:32.185Z,95353.00
2023-03-18T04:02:01.062Z,95358.00
2023-03-18T04:07:29.399Z,95364.00
2023-03-18T04:12:57.549Z,95367.00
2023-03-18T04:18:26.127Z,95372.00
2023-03-18T04:23:54.392Z,95367.00
2023-03-18T04:29:22.779Z,95372.00
2023-03-18T04:34:51.194Z,95365.00
2023-03-18T04:40:20.058Z,95376.00
2023-03-18T04:45:48.183Z,95374.00
2023-03-18T04:51:17.186Z,95380.00
2023-03-18T04:56:45.048Z,95382.00
2023-03-18T05:02:13.180Z,95373.00
2023-03-18T05:07:42.447Z,95371.00
2023-03-18T05:13:14.221Z,95368.00
2023-03-18T05:18:44.793Z,95364.00
2023-03-18T05:24:12.513Z,95374.00
2023-03-18T05:29:43.083Z,95374.00
2023-03-18T05:35:22.060Z,95376.00
2023-03-18T05:40:51.889Z,95384.00
2023-03-18T05:46:25.178Z,95385.00
2023-03-18T05:52:05.602Z,95383.00
2023-03-18T05:57:40.470Z,95383.00
2023-03-18T06:03:10.533Z,95391.00
2023-03-18T06:08:39.471Z,95399.00
2023-03-18T06:14:08.539Z,95392.00
2023-03-18T06:19:36.529Z,95399.00
2023-03-18T06:25:08.294Z,95402.00
2023-03-18T06:30:40.090Z,95396.00
2023-03-18T06:36:10.682Z,95405.00
2023-03-18T06:41:45.074Z,95402.00
2023-03-18T06:47:40.901Z,95400.00
2023-03-18T06:53:09.263Z,95406.00
2023-03-18T06:58:37.893Z,95408.00
2023-03-18T07:04:09.370Z,95413.00
2023-03-18T07:09:37.851Z,95410.00
2023-03-18T07:15:07.989Z,95406.00
2023-03-18T07:20:36.803Z,95404.00
2023-03-18T07:26:04.961Z,95417.00
2023-03-18T07:31:33.210Z,95423.00
2023-03-18T07:37:01.251Z,95422.00
2023-03-18T07:42:29.062Z,95424.00
2023-03-18T07:47:58.282Z,95424.00
2023-03-18T07:53:27.711Z,95418.00
2023-03-18T07:58:55.440Z,95425.00
2023-03-18T08:04:23.938Z,95437.00
2023-03-18T08:09:53.667Z,95447.00
2023-03-18T08:15:22.716Z,95431.00
2023-03-18T08:20:50.518Z,95443.00
2023-03-18T08:26:18.425Z,95449.00
2023-03-18T08:31:46.819Z,95447.00
2023-03-18T08:37:14.736Z,95444.00
2023-03-18T08:42:42.564Z,95442.00
2023-03-18T08:48:11.050Z,95444.00
2023-03-18T08:53:38.925Z,95444.00
2023-03-18T08:59:07.131Z,95439.00
2023-03-18T09:04:34.997Z,95439.00
2023-03-18T09:10:04.673Z,95440.00
2023-03-18T09:15:33.093Z,95438.00
2023-03-18T09:21:01.747Z,95444.00
2023-03-18T09:26:30.056Z,95434.00
2023-03-18T09:31:58.414Z,95434.00
2023-03-18T09:37:26.532Z,95436.00
2023-03-18T09:43:05.740Z,95436.00
2023-03-18T09:49:05.755Z,95435.00
2023-03-18T09:54:49.385Z,95431.00
2023-03-18T10:00:32.604Z,95430.00
2023-03-18T10:06:18.905Z,95439.00
2023-03-18T10:11:49.295Z,95445.00
2023-03-18T10:17:23.823Z,95431.00
2023-03-18T10:23:18.195Z,95442.00
2023-03-18T10:29:28.400Z,95450.00
2023-03-18T10:35:31.462Z,95447.00
2023-03-18T10:41:00.896Z,95434.00
2023-03-18T10:46:29.559Z,95435.00
2023-03-18T10:52:30.722Z,95426.00
2023-03-18T10:57:59.212Z,95413.00
2023-03-18T11:03:29.413Z,95424.00
2023-03-18T11:09:08.584Z,95413.00
2023-03-18T11:14:40.449Z,95410.00
2023-03-18T11:20:43.216Z,95403.00
2023-03-18T11:26:17.752Z,95400.00
2023-03-18T11:32:01.780Z,95390.00
2023-03-18T11:37:40.849Z,95376.00
2023-03-18T11:43:18.939Z,95378.00
2023-03-18T11:48:47.209Z,95371.00
2023-03-18T11:54:34.550Z,95362.00
2023-03-18T12:00:25.506Z,95355.00
2023-03-18T12:06:05.662Z,95344.00
2023-03-18T12:11:53.375Z,95339.00
2023-03-18T12:17:26.030Z,95330.00
2023-03-18T12:23:22.439Z,95338.00
2023-03-18T12:29:18.804Z,95340.00
2023-03-18T12:35:24.750Z,95335.00
2023-03-18T12:41:18.036Z,95320.00
2023-03-18T12:47:21.281Z,95320.00
2023-03-18T12:52:59.143Z,95320.00
2023-03-18T12:58:32.966Z,95317.00
2023-03-18T13:04:28.411Z,95320.00
2023-03-18T13:10:23.535Z,95312.00
2023-03-18T13:15:53.808Z,95321.00
2023-03-18T13:21:29.746Z,95319.00
2023-03-18T13:27:45.356Z,95316.00
2023-03-18T13:33:19.174Z,95319.00
2023-03-18T13:39:19.635Z,95314.00
2023-03-18T13:45:31.876Z,95299.00
2023-03-18T13:51:35.326Z,95297.00
2023-03-18T13:57:28.429Z,95285.00
2023-03-18T14:03:23.112Z,95284.00
2023-03-18T14:08:53.840Z,95280.00
2023-03-18T14:14:56.992Z,95259.00
2023-03-18T14:20:40.739Z,95248.00
2023-03-18T14:26:26.670Z,95235.00
2023-03-18T14:32:00.473Z,95236.00
2023-03-18T14:37:32.861Z,95226.00
2023-03-18T14:43:07.171Z,95222.00
2023-03-18T14:48:35.876Z,95228.00
2023-03-18T14:54:12.649Z,95225.00
2023-03-18T14:59:41.533Z,95252.00
2023-03-18T15:05:14.949Z,95245.00
2023-03-18T15:10:46.274Z,95221.00
2023-03-18T15:16:20.256Z,95218.00
2023-03-18T15:21:48.305Z,95255.00
2023-03-18T15:27:20.641Z,95241.00
2023-03-18T15:32:52.695Z,95238.00
2023-03-18T15:38:20.719Z,95234.00
2023-03-18T15:43:51.694Z,95236.00
2023-03-18T15:49:27.516Z,95248.00
2023-03-18T15:54:56.991Z,95249.00
2023-03-18T16:00:25.558Z,95251.00
2023-03-18T16:05:55.275Z,95231.00
2023-03-18T16:11:24.863Z,95258.00
2023-03-18T16:16:53.706Z,95259.00
2023-03-18T16:22:22.381Z,95260.00
2023-03-18T16:27:56.642Z,95262.00
2023-03-18T16:33:25.158Z,95261.00
2023-03-18T16:38:53.073Z,95258.00
2023-03-18T16:44:23.710Z,95263.00
2023-03-18T16:49:52.520Z,95279.00
2023-03-18T16:55:20.764Z,95290.00
2023-03-18T17:00:49.541Z,95295.00
2023-03-18T17:06:17.594Z,95294.00
2023-03-18T17:11:50.682Z,95302.00
2023-03-18T17:17:30.906Z,95309.00
2023-03-18T17:23:01.129Z,95311.00
2023-03-18T17:28:40.439Z,95307.00
2023-03-18T17:34:14.193Z,95314.00
2023-03-18T17:39:42.415Z,95308.00
2023-03-18T17:45:34.173Z,95314.00
2023-03-18T17:51:05.457Z,95308.00
2023-03-18T17:56:35.887Z,95299.00
2023-03-18T18:02:04.216Z,95296.00
2023-03-18T18:07:32.199Z,95297.00
2023-03-18T18:13:00.303Z,95304.00
2023-03-18T18:18:29.369Z,95296.00
2023-03-18T18:23:57.446Z,95299.00
2023-03-18T18:29:31.423Z,95302.00
2023-03-18T18:35:00.133Z,95303.00
2023-03-18T18:40:27.964Z,95303.00
2023-03-18T18:45:57.798Z,95306.00
2023-03-18T18:51:26.607Z,95299.00
2023-03-18T18:57:00.457Z,95299.00
2023-03-18T19:02:31.562Z,95297.00
2023-03-18T19:08:01.445Z,95296.00
2023-03-18T19:13:33.371Z,95304.00
2023-03-18T19:19:03.086Z,95304.00
2023-03-18T19:24:36.073Z,95303.00
2023-03-18T19:30:32.870Z,95296.00
2023-03-18T19:36:08.166Z,95308.00
2023-03-18T19:41:36.030Z,95315.00
2023-03-18T19:47:05.129Z,95326.00
2023-03-18T19:52:33.038Z,95323.00
2023-03-18T19:58:01.481Z,95324.00
2023-03-18T20:03:29.340Z,95327.00
2023-03-18T20:08:57.203Z,95317.00
2023-03-18T20:14:30.565Z,95326.00
2023-03-18T20:19:59.161Z,95327.00
2023-03-18T20:25:41.152Z,95332.00
2023-03-18T20:31:09.914Z,95329.00
2023-03-18T20:36:40.786Z,95329.00
2023-03-18T20:42:16.781Z,95321.00
2023-03-18T20:47:45.576Z,95329.00
2023-03-18T20:53:28.988Z,95325.00
2023-03-18T20:58:56.851Z,95327.00
2023-03-18T21:04:24.726Z,95315.00
2023-03-18T21:09:53.341Z,95315.00
2023-03-18T21:15:28.948Z,95323.00
2023-03-18T21:20:57.891Z,95321.00
2023-03-18T21:26:28.806Z,95320.00
2023-03-18T21:32:04.934Z,95318.00
2023-03-18T21:37:39.579Z,95332.00
2023-03-18T21:43:37.285Z,95317.00
2023-03-18T21:49:14.045Z,95311.00
2023-03-18T21:54:49.307Z,95319.00
2023-03-18T22:00:24.444Z,95315.00
2023-03-18T22:06:00.549Z,95299.00
2023-03-18T22:11:31.610Z,95298.00
2023-03-18T22:17:05.308Z,95302.00
2023-03-18T22:22:37.655Z,95301.00
2023-03-18T22:28:06.379Z,95302.00
2023-03-18T22:33:43.521Z,95303.00
2023-03-18T22:39:15.030Z,95305.00
2023-03-18T22:44:49.756Z,95294.00
2023-03-18T22:50:24.993Z,95304.00
2023-03-18T22:55:59.224Z,95296.00
2023-03-18T23:01:31.974Z,95303.00
2023-03-18T23:07:35.605Z,95298.00
2023-03-18T23:13:30.984Z,95297.00
2023-03-18T23:19:12.878Z,95305.00
2023-03-18T23:24:41.842Z,95302.00
2023-03-18T23:30:14.041Z,95313.00
2023-03-18T23:35:42.609Z,95306.00
2023-03-18T23:41:17.563Z,95310.00
2023-03-18T23:46:49.781Z,95312.00
2023-03-18T23:52:25.332Z,95316.00
2023-03-18T23:57:57.846Z,95321.00
